sensor_id;sensor_type;location;lat;lon;timestamp;pressure;altitude;pressure_sealevel;temperature;humidity
56241;BME280;42155;53.096;23.226;2023-04-07T00:01:06;99910.53;;;6.54;86.75
56241;BME280;42155;53.096;23.226;2023-04-07T00:03:06;99911.38;;;6.54;87.09
56241;BME280;42155;53.096;23.226;2023-04-07T00:05:07;99892.56;;;6.46;86.90
56241;BME280;42155;53.096;23.226;2023-04-07T00:07:07;99912.16;;;6.56;86.47
56241;BME280;42155;53.096;23.226;2023-04-07T00:09:09;99908.63;;;6.56;86.83
56241;BME280;42155;53.096;23.226;2023-04-07T00:11:09;99895.47;;;6.56;86.02
56241;BME280;42155;53.096;23.226;2023-04-07T00:13:09;99892.81;;;6.56;86.72
56241;BME280;42155;53.096;23.226;2023-04-07T00:15:10;99895.75;;;6.51;86.46
56241;BME280;42155;53.096;23.226;2023-04-07T00:17:10;99895.75;;;6.51;85.92
56241;BME280;42155;53.096;23.226;2023-04-07T00:19:11;99883.75;;;6.47;86.54
56241;BME280;42155;53.096;23.226;2023-04-07T00:21:11;99899.59;;;6.60;86.10
56241;BME280;42155;53.096;23.226;2023-04-07T00:23:11;99888.44;;;6.56;86.64
56241;BME280;42155;53.096;23.226;2023-04-07T00:25:11;99890.75;;;6.61;86.19
56241;BME280;42155;53.096;23.226;2023-04-07T00:27:12;99885.69;;;6.58;86.29
56241;BME280;42155;53.096;23.226;2023-04-07T00:29:12;99884.63;;;6.60;86.46
56241;BME280;42155;53.096;23.226;2023-04-07T00:31:13;99885.25;;;6.64;87.01
56241;BME280;42155;53.096;23.226;2023-04-07T00:33:13;99859.25;;;6.45;86.62
56241;BME280;42155;53.096;23.226;2023-04-07T00:35:13;99859.81;;;6.50;86.53
56241;BME280;42155;53.096;23.226;2023-04-07T00:37:14;99799.59;;;6.17;86.90
56241;BME280;42155;53.096;23.226;2023-04-07T00:39:14;99876.63;;;6.62;87.05
56241;BME280;42155;53.096;23.226;2023-04-07T00:41:14;99884.88;;;6.70;86.61
56241;BME280;42155;53.096;23.226;2023-04-07T00:43:15;99870.28;;;6.64;86.59
56241;BME280;42155;53.096;23.226;2023-04-07T00:45:15;99888.91;;;6.76;87.08
56241;BME280;42155;53.096;23.226;2023-04-07T00:47:15;99887.00;;;6.78;86.73
56241;BME280;42155;53.096;23.226;2023-04-07T00:49:16;99883.41;;;6.79;87.46
56241;BME280;42155;53.096;23.226;2023-04-07T00:51:19;99875.41;;;6.80;87.09
56241;BME280;42155;53.096;23.226;2023-04-07T00:53:20;99880.28;;;6.86;87.33
56241;BME280;42155;53.096;23.226;2023-04-07T00:55:20;99871.31;;;6.89;86.76
56241;BME280;42155;53.096;23.226;2023-04-07T00:57:21;99839.28;;;6.68;86.86
56241;BME280;42155;53.096;23.226;2023-04-07T00:59:22;99873.72;;;6.92;87.10
56241;BME280;42155;53.096;23.226;2023-04-07T01:01:30;99868.16;;;6.97;87.04
56241;BME280;42155;53.096;23.226;2023-04-07T01:03:45;99872.28;;;7.01;87.29
56241;BME280;42155;53.096;23.226;2023-04-07T01:05:54;99866.16;;;7.00;86.89
56241;BME280;42155;53.096;23.226;2023-04-07T01:08:02;99866.16;;;7.00;86.78
56241;BME280;42155;53.096;23.226;2023-04-07T01:10:11;99863.41;;;7.02;87.24
56241;BME280;42155;53.096;23.226;2023-04-07T01:14:50;99874.59;;;7.05;87.26
56241;BME280;42155;53.096;23.226;2023-04-07T01:16:51;99822.66;;;6.80;87.17
56241;BME280;42155;53.096;23.226;2023-04-07T01:18:56;99847.69;;;7.00;86.89
56241;BME280;42155;53.096;23.226;2023-04-07T01:21:03;99872.09;;;7.17;86.85
56241;BME280;42155;53.096;23.226;2023-04-07T01:23:06;99865.13;;;7.15;87.01
56241;BME280;42155;53.096;23.226;2023-04-07T01:25:25;99873.56;;;7.21;87.22
56241;BME280;42155;53.096;23.226;2023-04-07T01:29:33;99864.59;;;7.23;87.61
56241;BME280;42155;53.096;23.226;2023-04-07T01:31:38;99856.81;;;7.22;87.50
56241;BME280;42155;53.096;23.226;2023-04-07T01:33:42;99863.56;;;7.26;86.92
56241;BME280;42155;53.096;23.226;2023-04-07T01:35:45;99840.84;;;7.10;87.15
56241;BME280;42155;53.096;23.226;2023-04-07T01:37:47;99867.88;;;7.27;87.42
56241;BME280;42155;53.096;23.226;2023-04-07T01:39:48;99855.84;;;7.23;87.42
56241;BME280;42155;53.096;23.226;2023-04-07T01:41:50;99823.53;;;7.06;87.52
56241;BME280;42155;53.096;23.226;2023-04-07T01:43:51;99804.44;;;7.03;87.41
56241;BME280;42155;53.096;23.226;2023-04-07T01:45:53;99855.22;;;7.32;87.69
56241;BME280;42155;53.096;23.226;2023-04-07T01:47:55;99851.63;;;7.33;87.46
56241;BME280;42155;53.096;23.226;2023-04-07T01:49:57;99853.09;;;7.37;87.73
56241;BME280;42155;53.096;23.226;2023-04-07T01:51:58;99854.59;;;7.41;87.71
56241;BME280;42155;53.096;23.226;2023-04-07T01:54:00;99846.97;;;7.36;87.55
56241;BME280;42155;53.096;23.226;2023-04-07T01:56:01;99852.47;;;7.46;87.66
56241;BME280;42155;53.096;23.226;2023-04-07T01:58:05;99840.88;;;7.36;87.04
56241;BME280;42155;53.096;23.226;2023-04-07T02:00:06;99843.06;;;7.42;87.11
56241;BME280;42155;53.096;23.226;2023-04-07T02:02:07;99865.03;;;7.55;87.10
56241;BME280;42155;53.096;23.226;2023-04-07T02:06:18;99854.47;;;7.55;86.94
56241;BME280;42155;53.096;23.226;2023-04-07T02:08:20;99858.16;;;7.53;87.20
56241;BME280;42155;53.096;23.226;2023-04-07T02:10:22;99862.41;;;7.55;87.30
56241;BME280;42155;53.096;23.226;2023-04-07T02:12:25;99852.03;;;7.52;87.11
56241;BME280;42155;53.096;23.226;2023-04-07T02:14:27;99872.63;;;7.60;86.69
56241;BME280;42155;53.096;23.226;2023-04-07T02:16:28;99868.91;;;7.62;86.81
56241;BME280;42155;53.096;23.226;2023-04-07T02:18:30;99839.06;;;7.49;87.21
56241;BME280;42155;53.096;23.226;2023-04-07T02:20:32;99865.13;;;7.66;86.62
56241;BME280;42155;53.096;23.226;2023-04-07T02:22:35;99864.19;;;7.68;86.52
56241;BME280;42155;53.096;23.226;2023-04-07T02:24:36;99860.91;;;7.64;87.12
56241;BME280;42155;53.096;23.226;2023-04-07T02:26:41;99869.22;;;7.71;86.42
56241;BME280;42155;53.096;23.226;2023-04-07T02:28:42;99844.88;;;7.54;86.50
56241;BME280;42155;53.096;23.226;2023-04-07T02:30:42;99867.44;;;7.71;86.23
56241;BME280;42155;53.096;23.226;2023-04-07T02:32:43;99860.16;;;7.75;86.43
56241;BME280;42155;53.096;23.226;2023-04-07T02:34:43;99869.16;;;7.72;86.25
56241;BME280;42155;53.096;23.226;2023-04-07T02:36:43;99870.19;;;7.70;86.62
56241;BME280;42155;53.096;23.226;2023-04-07T02:38:44;99865.88;;;7.69;86.27
56241;BME280;42155;53.096;23.226;2023-04-07T02:40:44;99864.28;;;7.66;86.55
56241;BME280;42155;53.096;23.226;2023-04-07T02:42:45;99821.53;;;7.35;86.46
56241;BME280;42155;53.096;23.226;2023-04-07T02:44:45;99869.47;;;7.68;86.53
56241;BME280;42155;53.096;23.226;2023-04-07T02:46:46;99872.13;;;7.68;86.45
56241;BME280;42155;53.096;23.226;2023-04-07T02:48:46;99872.94;;;7.68;86.68
56241;BME280;42155;53.096;23.226;2023-04-07T02:50:46;99871.25;;;7.67;86.40
56241;BME280;42155;53.096;23.226;2023-04-07T02:52:47;99831.34;;;7.46;86.27
56241;BME280;42155;53.096;23.226;2023-04-07T02:54:47;99871.69;;;7.74;86.52
56241;BME280;42155;53.096;23.226;2023-04-07T02:56:47;99874.31;;;7.74;85.72
56241;BME280;42155;53.096;23.226;2023-04-07T02:58:48;99867.22;;;7.74;86.27
56241;BME280;42155;53.096;23.226;2023-04-07T03:00:48;99872.50;;;7.74;86.16
56241;BME280;42155;53.096;23.226;2023-04-07T03:02:48;99880.31;;;7.76;85.54
56241;BME280;42155;53.096;23.226;2023-04-07T03:04:50;99871.69;;;7.74;85.50
56241;BME280;42155;53.096;23.226;2023-04-07T03:06:51;99838.75;;;7.54;85.82
56241;BME280;42155;53.096;23.226;2023-04-07T03:08:51;99872.41;;;7.76;85.57
56241;BME280;42155;53.096;23.226;2023-04-07T03:10:51;99866.19;;;7.77;85.49
56241;BME280;42155;53.096;23.226;2023-04-07T03:12:52;99880.00;;;7.80;85.42
56241;BME280;42155;53.096;23.226;2023-04-07T03:14:52;99884.56;;;7.78;85.66
56241;BME280;42155;53.096;23.226;2023-04-07T03:16:52;99874.63;;;7.82;84.92
56241;BME280;42155;53.096;23.226;2023-04-07T03:18:53;99879.78;;;7.83;85.22
56241;BME280;42155;53.096;23.226;2023-04-07T03:20:53;99880.31;;;7.88;85.23
56241;BME280;42155;53.096;23.226;2023-04-07T03:22:53;99873.13;;;7.90;84.76
56241;BME280;42155;53.096;23.226;2023-04-07T03:24:54;99872.25;;;7.90;84.34
56241;BME280;42155;53.096;23.226;2023-04-07T03:26:54;99868.06;;;7.87;84.47
56241;BME280;42155;53.096;23.226;2023-04-07T03:28:54;99883.72;;;7.90;84.46
56241;BME280;42155;53.096;23.226;2023-04-07T03:30:55;99879.25;;;7.91;84.65
56241;BME280;42155;53.096;23.226;2023-04-07T03:32:55;99874.06;;;7.89;84.08
56241;BME280;42155;53.096;23.226;2023-04-07T03:34:55;99877.56;;;7.90;84.06
56241;BME280;42155;53.096;23.226;2023-04-07T03:36:56;99869.22;;;7.83;84.38
56241;BME280;42155;53.096;23.226;2023-04-07T03:38:56;99876.63;;;7.91;84.17
56241;BME280;42155;53.096;23.226;2023-04-07T03:40:56;99807.59;;;7.46;83.76
56241;BME280;42155;53.096;23.226;2023-04-07T03:42:57;99890.44;;;7.95;84.29
56241;BME280;42155;53.096;23.226;2023-04-07T03:44:57;99875.66;;;7.92;83.82
56241;BME280;42155;53.096;23.226;2023-04-07T03:46:57;99886.22;;;7.92;83.48
56241;BME280;42155;53.096;23.226;2023-04-07T03:48:58;99882.63;;;7.93;83.64
56241;BME280;42155;53.096;23.226;2023-04-07T03:50:58;99883.06;;;8.00;83.36
56241;BME280;42155;53.096;23.226;2023-04-07T03:52:58;99883.16;;;7.98;83.49
56241;BME280;42155;53.096;23.226;2023-04-07T03:54:59;99887.25;;;8.02;83.11
56241;BME280;42155;53.096;23.226;2023-04-07T03:56:59;99889.19;;;8.00;82.89
56241;BME280;42155;53.096;23.226;2023-04-07T03:59:00;99878.81;;;7.97;83.21
56241;BME280;42155;53.096;23.226;2023-04-07T04:01:00;99888.34;;;8.00;82.91
56241;BME280;42155;53.096;23.226;2023-04-07T04:03:00;99873.34;;;7.87;82.43
56241;BME280;42155;53.096;23.226;2023-04-07T04:05:01;99892.53;;;8.02;83.08
56241;BME280;42155;53.096;23.226;2023-04-07T04:07:01;99883.66;;;8.03;82.42
56241;BME280;42155;53.096;23.226;2023-04-07T04:09:02;99889.91;;;8.02;83.00
56241;BME280;42155;53.096;23.226;2023-04-07T04:11:02;99894.88;;;8.07;82.90
56241;BME280;42155;53.096;23.226;2023-04-07T04:13:02;99873.94;;;8.04;82.76
56241;BME280;42155;53.096;23.226;2023-04-07T04:15:03;99899.94;;;8.10;82.18
56241;BME280;42155;53.096;23.226;2023-04-07T04:17:03;99865.50;;;7.99;82.26
56241;BME280;42155;53.096;23.226;2023-04-07T04:19:04;99898.44;;;8.19;82.48
56241;BME280;42155;53.096;23.226;2023-04-07T04:21:06;99896.41;;;8.22;82.08
56241;BME280;42155;53.096;23.226;2023-04-07T04:23:06;99870.13;;;8.08;81.57
56241;BME280;42155;53.096;23.226;2023-04-07T04:25:07;99895.47;;;8.23;81.66
56241;BME280;42155;53.096;23.226;2023-04-07T04:27:07;99894.72;;;8.21;81.53
56241;BME280;42155;53.096;23.226;2023-04-07T04:29:07;99899.03;;;8.22;81.55
56241;BME280;42155;53.096;23.226;2023-04-07T04:31:08;99900.75;;;8.23;81.82
56241;BME280;42155;53.096;23.226;2023-04-07T04:33:08;99903.41;;;8.23;81.43
56241;BME280;42155;53.096;23.226;2023-04-07T04:35:08;99890.06;;;8.25;81.14
56241;BME280;42155;53.096;23.226;2023-04-07T04:37:09;99895.03;;;8.29;81.02
56241;BME280;42155;53.096;23.226;2023-04-07T04:39:09;99906.22;;;8.33;81.17
56241;BME280;42155;53.096;23.226;2023-04-07T04:41:09;99895.41;;;8.36;80.95
56241;BME280;42155;53.096;23.226;2023-04-07T04:43:10;99894.81;;;8.32;81.02
56241;BME280;42155;53.096;23.226;2023-04-07T04:45:10;99912.06;;;8.38;80.79
56241;BME280;42155;53.096;23.226;2023-04-07T04:47:10;99889.22;;;8.37;81.27
56241;BME280;42155;53.096;23.226;2023-04-07T04:49:11;99896.69;;;8.43;80.54
56241;BME280;42155;53.096;23.226;2023-04-07T04:51:11;99897.34;;;8.47;80.60
56241;BME280;42155;53.096;23.226;2023-04-07T04:53:11;99884.78;;;8.37;80.77
56241;BME280;42155;53.096;23.226;2023-04-07T04:55:12;99913.59;;;8.53;80.27
56241;BME280;42155;53.096;23.226;2023-04-07T04:57:12;99901.09;;;8.55;80.43
56241;BME280;42155;53.096;23.226;2023-04-07T04:59:12;99897.50;;;8.56;80.33
56241;BME280;42155;53.096;23.226;2023-04-07T05:01:13;99903.63;;;8.57;80.19
56241;BME280;42155;53.096;23.226;2023-04-07T05:03:13;99895.81;;;8.55;80.44
56241;BME280;42155;53.096;23.226;2023-04-07T05:05:13;99900.03;;;8.58;79.90
56241;BME280;42155;53.096;23.226;2023-04-07T05:07:14;99905.09;;;8.61;80.57
56241;BME280;42155;53.096;23.226;2023-04-07T05:09:14;99898.97;;;8.60;80.30
56241;BME280;42155;53.096;23.226;2023-04-07T05:11:15;99879.38;;;8.39;80.25
56241;BME280;42155;53.096;23.226;2023-04-07T05:13:16;99907.28;;;8.67;79.54
56241;BME280;42155;53.096;23.226;2023-04-07T05:15:16;99913.19;;;8.71;79.61
56241;BME280;42155;53.096;23.226;2023-04-07T05:17:16;99915.50;;;8.75;79.47
56241;BME280;42155;53.096;23.226;2023-04-07T05:19:17;99915.16;;;8.80;79.14
56241;BME280;42155;53.096;23.226;2023-04-07T05:21:17;99912.19;;;8.84;79.20
56241;BME280;42155;53.096;23.226;2023-04-07T05:23:17;99902.44;;;8.85;79.11
56241;BME280;42155;53.096;23.226;2023-04-07T05:25:18;99911.63;;;8.92;78.73
56241;BME280;42155;53.096;23.226;2023-04-07T05:27:18;99911.50;;;8.93;78.99
56241;BME280;42155;53.096;23.226;2023-04-07T05:29:18;99886.53;;;8.74;78.85
56241;BME280;42155;53.096;23.226;2023-04-07T05:31:19;99911.72;;;8.90;79.08
56241;BME280;42155;53.096;23.226;2023-04-07T05:33:19;99887.97;;;8.78;78.82
56241;BME280;42155;53.096;23.226;2023-04-07T05:35:20;99919.31;;;8.95;78.85
56241;BME280;42155;53.096;23.226;2023-04-07T05:37:20;99908.56;;;8.85;78.75
56241;BME280;42155;53.096;23.226;2023-04-07T05:39:20;99924.63;;;8.95;78.76
56241;BME280;42155;53.096;23.226;2023-04-07T05:41:20;99876.50;;;8.66;78.45
56241;BME280;42155;53.096;23.226;2023-04-07T05:43:21;99919.19;;;8.97;78.18
56241;BME280;42155;53.096;23.226;2023-04-07T05:45:21;99926.78;;;9.01;78.61
56241;BME280;42155;53.096;23.226;2023-04-07T05:47:22;99921.50;;;9.01;77.75
56241;BME280;42155;53.096;23.226;2023-04-07T05:49:22;99923.22;;;9.02;78.76
56241;BME280;42155;53.096;23.226;2023-04-07T05:51:22;99931.75;;;9.06;78.56
56241;BME280;42155;53.096;23.226;2023-04-07T05:53:23;99929.63;;;9.11;78.46
56241;BME280;42155;53.096;23.226;2023-04-07T05:55:23;99885.16;;;8.92;77.97
56241;BME280;42155;53.096;23.226;2023-04-07T05:57:24;99929.78;;;9.21;77.86
56241;BME280;42155;53.096;23.226;2023-04-07T05:59:24;99927.63;;;9.26;77.61
56241;BME280;42155;53.096;23.226;2023-04-07T06:01:24;99930.53;;;9.34;77.50
56241;BME280;42155;53.096;23.226;2023-04-07T06:03:25;99907.91;;;9.30;77.26
56241;BME280;42155;53.096;23.226;2023-04-07T06:05:25;99933.81;;;9.49;77.42
56241;BME280;42155;53.096;23.226;2023-04-07T06:07:25;99897.19;;;9.42;76.93
56241;BME280;42155;53.096;23.226;2023-04-07T06:09:26;99923.97;;;9.73;76.98
56241;BME280;42155;53.096;23.226;2023-04-07T06:11:26;99905.06;;;9.89;76.32
56241;BME280;42155;53.096;23.226;2023-04-07T06:13:26;99925.22;;;10.36;75.54
56241;BME280;42155;53.096;23.226;2023-04-07T06:15:27;99899.53;;;10.37;74.88
56241;BME280;42155;53.096;23.226;2023-04-07T06:17:27;99923.22;;;10.61;74.21
56241;BME280;42155;53.096;23.226;2023-04-07T06:19:35;99917.22;;;10.59;74.23
56241;BME280;42155;53.096;23.226;2023-04-07T06:21:38;99923.19;;;10.72;74.19
56241;BME280;42155;53.096;23.226;2023-04-07T06:23:38;99909.91;;;11.04;73.03
56241;BME280;42155;53.096;23.226;2023-04-07T06:25:39;99921.72;;;11.95;71.29
56241;BME280;42155;53.096;23.226;2023-04-07T06:27:39;99922.97;;;13.30;67.18
56241;BME280;42155;53.096;23.226;2023-04-07T06:29:39;99917.16;;;14.38;63.48
56241;BME280;42155;53.096;23.226;2023-04-07T06:31:40;99895.59;;;14.21;62.83
56241;BME280;42155;53.096;23.226;2023-04-07T06:33:40;99909.19;;;13.91;63.81
56241;BME280;42155;53.096;23.226;2023-04-07T06:35:40;99921.31;;;13.75;64.26
56241;BME280;42155;53.096;23.226;2023-04-07T06:37:41;99913.81;;;14.26;63.09
56241;BME280;42155;53.096;23.226;2023-04-07T06:39:41;99914.25;;;14.76;61.91
56241;BME280;42155;53.096;23.226;2023-04-07T06:41:41;99919.06;;;14.91;61.47
56241;BME280;42155;53.096;23.226;2023-04-07T06:43:43;99917.22;;;14.73;61.39
56241;BME280;42155;53.096;23.226;2023-04-07T06:45:43;99908.34;;;14.55;61.96
56241;BME280;42155;53.096;23.226;2023-04-07T06:47:44;99912.72;;;14.56;61.50
56241;BME280;42155;53.096;23.226;2023-04-07T06:49:44;99917.47;;;14.62;61.48
56241;BME280;42155;53.096;23.226;2023-04-07T06:51:44;99838.94;;;14.45;62.07
56241;BME280;42155;53.096;23.226;2023-04-07T06:53:45;99910.13;;;15.18;60.87
56241;BME280;42155;53.096;23.226;2023-04-07T06:55:45;99914.31;;;15.20;59.70
56241;BME280;42155;53.096;23.226;2023-04-07T06:57:45;99910.44;;;15.15;60.29
56241;BME280;42155;53.096;23.226;2023-04-07T06:59:46;99914.03;;;15.23;60.08
56241;BME280;42155;53.096;23.226;2023-04-07T07:01:46;99915.31;;;15.19;59.63
56241;BME280;42155;53.096;23.226;2023-04-07T07:03:46;99872.91;;;14.98;60.11
56241;BME280;42155;53.096;23.226;2023-04-07T07:05:46;99876.94;;;14.85;60.20
56241;BME280;42155;53.096;23.226;2023-04-07T07:07:47;99911.22;;;15.07;60.18
56241;BME280;42155;53.096;23.226;2023-04-07T07:09:47;99910.38;;;14.89;60.55
56241;BME280;42155;53.096;23.226;2023-04-07T07:11:47;99915.88;;;15.05;60.73
56241;BME280;42155;53.096;23.226;2023-04-07T07:13:48;99920.44;;;15.31;59.74
56241;BME280;42155;53.096;23.226;2023-04-07T07:15:49;99877.00;;;15.11;59.19
56241;BME280;42155;53.096;23.226;2023-04-07T07:17:49;99923.50;;;15.36;59.18
56241;BME280;42155;53.096;23.226;2023-04-07T07:19:49;99887.22;;;15.15;58.57
56241;BME280;42155;53.096;23.226;2023-04-07T07:21:50;99922.88;;;15.06;59.75
56241;BME280;42155;53.096;23.226;2023-04-07T07:23:50;99917.41;;;14.90;59.78
56241;BME280;42155;53.096;23.226;2023-04-07T07:25:50;99901.66;;;14.87;59.92
56241;BME280;42155;53.096;23.226;2023-04-07T07:27:51;99901.28;;;14.99;59.95
56241;BME280;42155;53.096;23.226;2023-04-07T07:29:52;99905.19;;;15.05;60.32
56241;BME280;42155;53.096;23.226;2023-04-07T07:31:52;99902.97;;;15.18;59.91
56241;BME280;42155;53.096;23.226;2023-04-07T07:33:52;99912.31;;;15.40;59.49
56241;BME280;42155;53.096;23.226;2023-04-07T07:35:53;99908.91;;;15.56;59.14
56241;BME280;42155;53.096;23.226;2023-04-07T07:37:53;99916.47;;;15.78;58.79
56241;BME280;42155;53.096;23.226;2023-04-07T07:39:53;99925.97;;;15.73;58.66
56241;BME280;42155;53.096;23.226;2023-04-07T07:41:54;99908.38;;;15.70;59.04
56241;BME280;42155;53.096;23.226;2023-04-07T07:43:54;99927.09;;;15.70;58.92
56241;BME280;42155;53.096;23.226;2023-04-07T07:45:54;99910.28;;;15.60;58.59
56241;BME280;42155;53.096;23.226;2023-04-07T07:47:55;99919.78;;;15.72;58.42
56241;BME280;42155;53.096;23.226;2023-04-07T07:49:55;99891.06;;;15.39;58.24
56241;BME280;42155;53.096;23.226;2023-04-07T07:51:55;99921.50;;;15.38;58.91
56241;BME280;42155;53.096;23.226;2023-04-07T07:53:56;99871.13;;;15.07;59.22
56241;BME280;42155;53.096;23.226;2023-04-07T07:55:56;99920.25;;;15.50;59.15
56241;BME280;42155;53.096;23.226;2023-04-07T07:57:56;99925.59;;;15.50;58.84
56241;BME280;42155;53.096;23.226;2023-04-07T07:59:57;99931.53;;;15.62;58.80
56241;BME280;42155;53.096;23.226;2023-04-07T08:01:57;99920.91;;;15.70;58.14
56241;BME280;42155;53.096;23.226;2023-04-07T08:03:58;99927.16;;;15.78;58.06
56241;BME280;42155;53.096;23.226;2023-04-07T08:05:58;99919.25;;;15.69;57.86
56241;BME280;42155;53.096;23.226;2023-04-07T08:07:58;99929.19;;;15.85;58.19
56241;BME280;42155;53.096;23.226;2023-04-07T08:09:59;99892.31;;;15.70;58.05
56241;BME280;42155;53.096;23.226;2023-04-07T08:11:59;99931.56;;;16.14;58.09
56241;BME280;42155;53.096;23.226;2023-04-07T08:13:59;99854.25;;;15.85;58.15
56241;BME280;42155;53.096;23.226;2023-04-07T08:16:00;99933.41;;;16.55;57.42
56241;BME280;42155;53.096;23.226;2023-04-07T08:18:00;99913.31;;;16.60;56.87
56241;BME280;42155;53.096;23.226;2023-04-07T08:20:00;99931.47;;;16.74;57.19
56241;BME280;42155;53.096;23.226;2023-04-07T08:22:01;99927.97;;;16.73;56.73
56241;BME280;42155;53.096;23.226;2023-04-07T08:24:01;99915.13;;;16.59;56.70
56241;BME280;42155;53.096;23.226;2023-04-07T08:26:01;99946.31;;;16.60;56.87
56241;BME280;42155;53.096;23.226;2023-04-07T08:28:02;99945.56;;;16.50;56.88
56241;BME280;42155;53.096;23.226;2023-04-07T08:30:04;99950.88;;;16.34;56.91
56241;BME280;42155;53.096;23.226;2023-04-07T08:32:05;99953.44;;;16.09;57.49
56241;BME280;42155;53.096;23.226;2023-04-07T08:34:05;99952.66;;;15.91;57.94
56241;BME280;42155;53.096;23.226;2023-04-07T08:36:05;99953.38;;;15.57;58.56
56241;BME280;42155;53.096;23.226;2023-04-07T08:38:06;99920.84;;;15.18;59.32
56241;BME280;42155;53.096;23.226;2023-04-07T08:40:06;99961.38;;;15.31;59.51
56241;BME280;42155;53.096;23.226;2023-04-07T08:42:07;99952.28;;;15.24;59.62
56241;BME280;42155;53.096;23.226;2023-04-07T08:44:10;99952.81;;;15.27;59.71
56241;BME280;42155;53.096;23.226;2023-04-07T08:46:10;99963.44;;;15.37;59.66
56241;BME280;42155;53.096;23.226;2023-04-07T08:48:17;99948.94;;;15.40;59.50
56241;BME280;42155;53.096;23.226;2023-04-07T08:50:18;99949.31;;;15.45;59.39
56241;BME280;42155;53.096;23.226;2023-04-07T08:52:22;99947.31;;;15.47;59.00
56241;BME280;42155;53.096;23.226;2023-04-07T08:54:22;99960.75;;;15.55;59.58
56241;BME280;42155;53.096;23.226;2023-04-07T08:56:23;99913.34;;;15.39;58.96
56241;BME280;42155;53.096;23.226;2023-04-07T08:58:23;99951.59;;;15.84;58.87
56241;BME280;42155;53.096;23.226;2023-04-07T09:00:24;99939.81;;;15.68;58.55
56241;BME280;42155;53.096;23.226;2023-04-07T09:02:24;99953.94;;;15.61;59.04
56241;BME280;42155;53.096;23.226;2023-04-07T09:04:25;99932.66;;;15.33;59.26
56241;BME280;42155;53.096;23.226;2023-04-07T09:06:25;99963.50;;;15.45;59.53
56241;BME280;42155;53.096;23.226;2023-04-07T09:08:26;99958.84;;;15.47;59.42
56241;BME280;42155;53.096;23.226;2023-04-07T09:10:27;99939.16;;;15.31;59.40
56241;BME280;42155;53.096;23.226;2023-04-07T09:12:28;99929.38;;;15.21;59.57
56241;BME280;42155;53.096;23.226;2023-04-07T09:14:28;99933.03;;;15.20;59.75
56241;BME280;42155;53.096;23.226;2023-04-07T09:16:29;99955.97;;;15.23;59.83
56241;BME280;42155;53.096;23.226;2023-04-07T09:18:29;99961.78;;;15.18;60.11
56241;BME280;42155;53.096;23.226;2023-04-07T09:20:55;99962.44;;;15.20;59.79
56241;BME280;42155;53.096;23.226;2023-04-07T09:22:56;99971.84;;;15.24;59.80
56241;BME280;42155;53.096;23.226;2023-04-07T09:25:08;99928.22;;;15.06;60.01
56241;BME280;42155;53.096;23.226;2023-04-07T09:27:17;99962.78;;;15.17;59.84
56241;BME280;42155;53.096;23.226;2023-04-07T09:29:19;99954.28;;;15.22;59.68
56241;BME280;42155;53.096;23.226;2023-04-07T09:31:20;99954.50;;;15.28;60.01
56241;BME280;42155;53.096;23.226;2023-04-07T09:33:27;99970.31;;;15.40;59.74
56241;BME280;42155;53.096;23.226;2023-04-07T09:35:27;99953.81;;;15.44;59.48
56241;BME280;42155;53.096;23.226;2023-04-07T09:37:27;99951.81;;;15.46;59.07
56241;BME280;42155;53.096;23.226;2023-04-07T09:39:28;99952.06;;;15.53;59.58
56241;BME280;42155;53.096;23.226;2023-04-07T09:41:28;99951.50;;;15.49;59.47
56241;BME280;42155;53.096;23.226;2023-04-07T09:43:29;99957.09;;;15.38;59.56
56241;BME280;42155;53.096;23.226;2023-04-07T09:45:30;99956.50;;;15.26;59.92
56241;BME280;42155;53.096;23.226;2023-04-07T09:47:31;99965.34;;;15.09;60.19
56241;BME280;42155;53.096;23.226;2023-04-07T09:49:31;99894.03;;;14.46;60.68
56241;BME280;42155;53.096;23.226;2023-04-07T09:51:32;99951.00;;;14.74;60.91
56241;BME280;42155;53.096;23.226;2023-04-07T09:53:47;99970.06;;;14.80;60.72
56241;BME280;42155;53.096;23.226;2023-04-07T09:55:48;99971.25;;;14.67;61.33
56241;BME280;42155;53.096;23.226;2023-04-07T09:57:49;99976.88;;;14.64;61.53
56241;BME280;42155;53.096;23.226;2023-04-07T09:59:50;99976.06;;;14.64;61.45
56241;BME280;42155;53.096;23.226;2023-04-07T10:01:52;99975.22;;;14.63;61.69
56241;BME280;42155;53.096;23.226;2023-04-07T10:03:53;99951.78;;;14.57;61.64
56241;BME280;42155;53.096;23.226;2023-04-07T10:05:53;99969.72;;;14.65;62.07
56241;BME280;42155;53.096;23.226;2023-04-07T10:07:54;99973.16;;;14.57;61.77
56241;BME280;42155;53.096;23.226;2023-04-07T10:09:54;99967.66;;;14.59;61.67
56241;BME280;42155;53.096;23.226;2023-04-07T10:11:55;99977.50;;;14.58;61.99
56241;BME280;42155;53.096;23.226;2023-04-07T10:13:56;99889.78;;;13.98;62.07
56241;BME280;42155;53.096;23.226;2023-04-07T10:15:57;99974.91;;;14.39;62.23
56241;BME280;42155;53.096;23.226;2023-04-07T10:17:58;99974.19;;;14.37;62.81
56241;BME280;42155;53.096;23.226;2023-04-07T10:20:00;99976.84;;;14.37;62.37
56241;BME280;42155;53.096;23.226;2023-04-07T10:22:02;99949.25;;;14.18;62.36
56241;BME280;42155;53.096;23.226;2023-04-07T10:26:38;99959.38;;;14.24;62.46
56241;BME280;42155;53.096;23.226;2023-04-07T10:28:40;99952.63;;;14.20;62.64
56241;BME280;42155;53.096;23.226;2023-04-07T10:30:43;99871.94;;;13.71;62.58
56241;BME280;42155;53.096;23.226;2023-04-07T10:32:51;99977.16;;;14.34;62.68
56241;BME280;42155;53.096;23.226;2023-04-07T10:37:10;99984.06;;;14.26;62.76
56241;BME280;42155;53.096;23.226;2023-04-07T10:41:39;99992.41;;;14.14;63.30
56241;BME280;42155;53.096;23.226;2023-04-07T10:43:40;99987.50;;;14.09;63.26
56241;BME280;42155;53.096;23.226;2023-04-07T10:50:19;99991.69;;;14.21;62.86
56241;BME280;42155;53.096;23.226;2023-04-07T10:52:23;99973.63;;;14.06;62.93
56241;BME280;42155;53.096;23.226;2023-04-07T10:54:23;99982.88;;;14.11;63.21
56241;BME280;42155;53.096;23.226;2023-04-07T10:56:23;99990.88;;;14.11;63.31